sensor_id;sensor_type;location;lat;lon;timestamp;temperature;humidity
8172;DHT22;4127;47.908;10.850;2022-12-29T00:02:04;2.90;99.90
8172;DHT22;4127;47.908;10.850;2022-12-29T00:04:31;2.80;99.90
8172;DHT22;4127;47.908;10.850;2022-12-29T00:06:57;2.80;99.90
8172;DHT22;4127;47.908;10.850;2022-12-29T00:09:25;2.80;99.90
8172;DHT22;4127;47.908;10.850;2022-12-29T00:11:52;2.80;99.90
8172;DHT22;4127;47.908;10.850;2022-12-29T00:14:19;2.80;99.90
8172;DHT22;4127;47.908;10.850;2022-12-29T00:17:05;2.80;99.90
8172;DHT22;4127;47.908;10.850;2022-12-29T00:19:31;2.90;99.90
8172;DHT22;4127;47.908;10.850;2022-12-29T00:22:17;2.90;99.90
8172;DHT22;4127;47.908;10.850;2022-12-29T00:25:03;2.90;99.90
8172;DHT22;4127;47.908;10.850;2022-12-29T00:27:48;3.00;99.90
8172;DHT22;4127;47.908;10.850;2022-12-29T00:30:35;3.00;99.90
8172;DHT22;4127;47.908;10.850;2022-12-29T00:33:25;2.90;99.90
8172;DHT22;4127;47.908;10.850;2022-12-29T00:36:21;2.90;99.90
8172;DHT22;4127;47.908;10.850;2022-12-29T00:38:52;3.00;99.90
8172;DHT22;4127;47.908;10.850;2022-12-29T00:41:39;2.90;99.90
8172;DHT22;4127;47.908;10.850;2022-12-29T00:44:24;2.80;99.90
8172;DHT22;4127;47.908;10.850;2022-12-29T00:46:51;2.70;99.90
8172;DHT22;4127;47.908;10.850;2022-12-29T00:49:18;2.60;99.90
8172;DHT22;4127;47.908;10.850;2022-12-29T00:51:59;2.50;99.90
8172;DHT22;4127;47.908;10.850;2022-12-29T00:54:27;2.60;99.90
8172;DHT22;4127;47.908;10.850;2022-12-29T00:56:55;2.70;99.90
8172;DHT22;4127;47.908;10.850;2022-12-29T00:59:22;2.70;99.90
8172;DHT22;4127;47.908;10.850;2022-12-29T01:01:51;2.70;99.90
8172;DHT22;4127;47.908;10.850;2022-12-29T01:04:20;2.70;99.90
8172;DHT22;4127;47.908;10.850;2022-12-29T01:06:47;2.70;99.90
8172;DHT22;4127;47.908;10.850;2022-12-29T01:09:14;2.90;99.90
8172;DHT22;4127;47.908;10.850;2022-12-29T01:12:00;3.00;99.90
8172;DHT22;4127;47.908;10.850;2022-12-29T01:14:27;3.00;99.90
8172;DHT22;4127;47.908;10.850;2022-12-29T01:16:54;3.00;99.90
8172;DHT22;4127;47.908;10.850;2022-12-29T01:19:22;2.80;99.90
8172;DHT22;4127;47.908;10.850;2022-12-29T01:21:49;2.90;99.90
8172;DHT22;4127;47.908;10.850;2022-12-29T01:24:18;3.10;99.90
8172;DHT22;4127;47.908;10.850;2022-12-29T01:26:45;3.20;99.90
8172;DHT22;4127;47.908;10.850;2022-12-29T01:29:13;3.10;99.90
8172;DHT22;4127;47.908;10.850;2022-12-29T01:31:39;3.00;99.90
8172;DHT22;4127;47.908;10.850;2022-12-29T01:34:07;3.00;99.90
8172;DHT22;4127;47.908;10.850;2022-12-29T01:36:34;3.00;99.90
8172;DHT22;4127;47.908;10.850;2022-12-29T01:39:01;3.00;99.90
8172;DHT22;4127;47.908;10.850;2022-12-29T01:41:28;3.00;99.90
8172;DHT22;4127;47.908;10.850;2022-12-29T01:43:59;3.00;99.90
8172;DHT22;4127;47.908;10.850;2022-12-29T01:46:40;3.00;99.90
8172;DHT22;4127;47.908;10.850;2022-12-29T01:51:47;3.20;99.90
8172;DHT22;4127;47.908;10.850;2022-12-29T01:54:19;3.30;99.90
8172;DHT22;4127;47.908;10.850;2022-12-29T01:56:49;3.30;99.90
8172;DHT22;4127;47.908;10.850;2022-12-29T01:59:21;3.30;99.90
8172;DHT22;4127;47.908;10.850;2022-12-29T02:01:49;3.40;99.90
8172;DHT22;4127;47.908;10.850;2022-12-29T02:04:17;3.30;99.90
8172;DHT22;4127;47.908;10.850;2022-12-29T02:06:57;3.40;99.90
8172;DHT22;4127;47.908;10.850;2022-12-29T02:09:26;3.40;99.90
8172;DHT22;4127;47.908;10.850;2022-12-29T02:11:53;3.30;99.90
8172;DHT22;4127;47.908;10.850;2022-12-29T02:14:20;3.40;99.90
8172;DHT22;4127;47.908;10.850;2022-12-29T02:25:58;3.50;99.90
8172;DHT22;4127;47.908;10.850;2022-12-29T02:31:21;3.60;99.90
8172;DHT22;4127;47.908;10.850;2022-12-29T02:34:11;3.50;99.90
8172;DHT22;4127;47.908;10.850;2022-12-29T02:45:13;3.80;99.90
8172;DHT22;4127;47.908;10.850;2022-12-29T02:53:06;3.70;99.90
8172;DHT22;4127;47.908;10.850;2022-12-29T02:55:34;3.70;99.90
8172;DHT22;4127;47.908;10.850;2022-12-29T02:58:22;3.80;99.90
8172;DHT22;4127;47.908;10.850;2022-12-29T03:12:03;4.20;99.90
8172;DHT22;4127;47.908;10.850;2022-12-29T03:15:04;4.20;99.90
8172;DHT22;4127;47.908;10.850;2022-12-29T03:18:00;4.20;99.90
8172;DHT22;4127;47.908;10.850;2022-12-29T03:20:39;4.20;99.90
8172;DHT22;4127;47.908;10.850;2022-12-29T03:23:08;4.30;99.90
8172;DHT22;4127;47.908;10.850;2022-12-29T03:25:41;4.30;99.90
8172;DHT22;4127;47.908;10.850;2022-12-29T03:28:14;4.40;99.90
8172;DHT22;4127;47.908;10.850;2022-12-29T03:30:43;4.40;99.90
8172;DHT22;4127;47.908;10.850;2022-12-29T03:33:15;4.40;99.90
8172;DHT22;4127;47.908;10.850;2022-12-29T03:35:45;4.40;99.90
8172;DHT22;4127;47.908;10.850;2022-12-29T03:40:47;4.50;99.90
8172;DHT22;4127;47.908;10.850;2022-12-29T03:43:15;4.70;99.90
8172;DHT22;4127;47.908;10.850;2022-12-29T03:45:43;4.80;99.90
8172;DHT22;4127;47.908;10.850;2022-12-29T03:48:10;4.90;99.60
8172;DHT22;4127;47.908;10.850;2022-12-29T03:50:37;5.00;99.60
8172;DHT22;4127;47.908;10.850;2022-12-29T03:53:04;4.90;99.90
8172;DHT22;4127;47.908;10.850;2022-12-29T03:55:31;4.90;99.90
8172;DHT22;4127;47.908;10.850;2022-12-29T03:57:57;4.80;99.70
8172;DHT22;4127;47.908;10.850;2022-12-29T04:00:24;4.80;99.90
8172;DHT22;4127;47.908;10.850;2022-12-29T04:02:51;4.80;99.90
8172;DHT22;4127;47.908;10.850;2022-12-29T04:05:18;4.80;99.90
8172;DHT22;4127;47.908;10.850;2022-12-29T04:07:45;4.80;99.90
8172;DHT22;4127;47.908;10.850;2022-12-29T04:10:11;4.80;99.70
8172;DHT22;4127;47.908;10.850;2022-12-29T04:12:39;4.90;99.30
8172;DHT22;4127;47.908;10.850;2022-12-29T04:15:09;4.90;99.40
8172;DHT22;4127;47.908;10.850;2022-12-29T04:17:35;4.90;99.60
8172;DHT22;4127;47.908;10.850;2022-12-29T04:20:03;4.80;99.90
8172;DHT22;4127;47.908;10.850;2022-12-29T04:22:49;4.80;99.90
8172;DHT22;4127;47.908;10.850;2022-12-29T04:25:16;4.70;99.90
8172;DHT22;4127;47.908;10.850;2022-12-29T04:27:44;4.70;99.90
8172;DHT22;4127;47.908;10.850;2022-12-29T04:30:11;4.80;99.90
8172;DHT22;4127;47.908;10.850;2022-12-29T04:32:38;4.80;99.90
8172;DHT22;4127;47.908;10.850;2022-12-29T04:35:05;4.80;99.90
8172;DHT22;4127;47.908;10.850;2022-12-29T04:37:32;4.70;99.90
8172;DHT22;4127;47.908;10.850;2022-12-29T04:39:59;4.70;99.90
8172;DHT22;4127;47.908;10.850;2022-12-29T04:42:26;4.80;99.90
8172;DHT22;4127;47.908;10.850;2022-12-29T04:44:52;4.80;99.90
8172;DHT22;4127;47.908;10.850;2022-12-29T04:47:19;4.90;99.90
8172;DHT22;4127;47.908;10.850;2022-12-29T04:49:46;5.00;99.00
8172;DHT22;4127;47.908;10.850;2022-12-29T04:52:13;5.10;98.70
8172;DHT22;4127;47.908;10.850;2022-12-29T04:54:40;5.20;98.40
8172;DHT22;4127;47.908;10.850;2022-12-29T04:57:06;5.20;98.60
8172;DHT22;4127;47.908;10.850;2022-12-29T04:59:33;5.10;98.90
8172;DHT22;4127;47.908;10.850;2022-12-29T05:02:00;5.10;99.00
8172;DHT22;4127;47.908;10.850;2022-12-29T05:04:27;5.10;98.60
8172;DHT22;4127;47.908;10.850;2022-12-29T05:06:53;5.20;98.50
8172;DHT22;4127;47.908;10.850;2022-12-29T05:09:20;5.10;99.10
8172;DHT22;4127;47.908;10.850;2022-12-29T05:11:47;5.20;98.90
8172;DHT22;4127;47.908;10.850;2022-12-29T05:14:14;5.00;98.70
8172;DHT22;4127;47.908;10.850;2022-12-29T05:16:40;5.20;98.70
8172;DHT22;4127;47.908;10.850;2022-12-29T05:19:07;5.20;98.70
8172;DHT22;4127;47.908;10.850;2022-12-29T05:21:34;5.10;98.70
8172;DHT22;4127;47.908;10.850;2022-12-29T05:24:01;5.10;99.20
8172;DHT22;4127;47.908;10.850;2022-12-29T05:26:27;5.00;99.20
8172;DHT22;4127;47.908;10.850;2022-12-29T05:28:54;5.00;99.40
8172;DHT22;4127;47.908;10.850;2022-12-29T05:31:21;5.00;99.70
8172;DHT22;4127;47.908;10.850;2022-12-29T05:33:48;5.00;99.60
8172;DHT22;4127;47.908;10.850;2022-12-29T05:36:14;4.80;99.70
8172;DHT22;4127;47.908;10.850;2022-12-29T05:38:41;4.80;99.70
8172;DHT22;4127;47.908;10.850;2022-12-29T05:41:08;4.80;99.40
8172;DHT22;4127;47.908;10.850;2022-12-29T05:43:34;4.90;99.20
8172;DHT22;4127;47.908;10.850;2022-12-29T05:46:02;4.90;99.20
8172;DHT22;4127;47.908;10.850;2022-12-29T05:48:29;4.90;99.90
8172;DHT22;4127;47.908;10.850;2022-12-29T05:51:03;4.80;99.90
8172;DHT22;4127;47.908;10.850;2022-12-29T05:53:30;4.70;99.90
8172;DHT22;4127;47.908;10.850;2022-12-29T05:55:56;4.60;99.90
8172;DHT22;4127;47.908;10.850;2022-12-29T05:58:23;4.70;99.90
8172;DHT22;4127;47.908;10.850;2022-12-29T06:00:50;4.70;99.90
8172;DHT22;4127;47.908;10.850;2022-12-29T06:03:17;4.80;99.90
8172;DHT22;4127;47.908;10.850;2022-12-29T06:05:45;4.90;99.90
8172;DHT22;4127;47.908;10.850;2022-12-29T06:08:12;4.80;99.90
8172;DHT22;4127;47.908;10.850;2022-12-29T06:10:39;4.90;99.90
8172;DHT22;4127;47.908;10.850;2022-12-29T06:13:06;5.00;99.40
8172;DHT22;4127;47.908;10.850;2022-12-29T06:15:33;5.10;99.70
8172;DHT22;4127;47.908;10.850;2022-12-29T06:18:00;5.00;99.90
8172;DHT22;4127;47.908;10.850;2022-12-29T06:20:27;5.00;99.70
8172;DHT22;4127;47.908;10.850;2022-12-29T06:22:54;5.00;99.90
8172;DHT22;4127;47.908;10.850;2022-12-29T06:25:21;5.00;99.90
8172;DHT22;4127;47.908;10.850;2022-12-29T06:27:47;5.10;99.70
8172;DHT22;4127;47.908;10.850;2022-12-29T06:30:14;5.50;96.20
8172;DHT22;4127;47.908;10.850;2022-12-29T06:32:43;6.10;93.20
8172;DHT22;4127;47.908;10.850;2022-12-29T06:35:09;6.40;92.10
8172;DHT22;4127;47.908;10.850;2022-12-29T06:37:36;6.60;91.60
8172;DHT22;4127;47.908;10.850;2022-12-29T06:40:03;6.80;90.40
8172;DHT22;4127;47.908;10.850;2022-12-29T06:42:30;7.00;89.90
8172;DHT22;4127;47.908;10.850;2022-12-29T06:44:57;7.00;88.70
8172;DHT22;4127;47.908;10.850;2022-12-29T06:47:25;7.10;88.40
8172;DHT22;4127;47.908;10.850;2022-12-29T06:49:52;7.10;87.60
8172;DHT22;4127;47.908;10.850;2022-12-29T06:52:18;7.10;87.20
8172;DHT22;4127;47.908;10.850;2022-12-29T06:54:45;7.20;86.90
8172;DHT22;4127;47.908;10.850;2022-12-29T06:57:12;7.20;86.30
8172;DHT22;4127;47.908;10.850;2022-12-29T06:59:39;7.10;86.20
8172;DHT22;4127;47.908;10.850;2022-12-29T07:02:06;7.10;86.10
8172;DHT22;4127;47.908;10.850;2022-12-29T07:04:33;7.10;86.60
8172;DHT22;4127;47.908;10.850;2022-12-29T07:07:00;7.10;86.30
8172;DHT22;4127;47.908;10.850;2022-12-29T07:09:27;6.90;87.10
8172;DHT22;4127;47.908;10.850;2022-12-29T07:11:53;6.80;87.40
8172;DHT22;4127;47.908;10.850;2022-12-29T07:14:20;6.90;87.70
8172;DHT22;4127;47.908;10.850;2022-12-29T07:16:47;6.60;88.30
8172;DHT22;4127;47.908;10.850;2022-12-29T07:19:13;7.00;87.90
8172;DHT22;4127;47.908;10.850;2022-12-29T07:21:40;7.10;88.00
8172;DHT22;4127;47.908;10.850;2022-12-29T07:24:12;7.30;87.70
8172;DHT22;4127;47.908;10.850;2022-12-29T07:26:39;7.30;87.40
8172;DHT22;4127;47.908;10.850;2022-12-29T07:29:06;7.20;88.00
8172;DHT22;4127;47.908;10.850;2022-12-29T07:31:33;7.10;88.30
8172;DHT22;4127;47.908;10.850;2022-12-29T07:33:59;7.20;87.90
8172;DHT22;4127;47.908;10.850;2022-12-29T07:36:26;7.20;87.50
8172;DHT22;4127;47.908;10.850;2022-12-29T07:39:00;7.20;87.70
8172;DHT22;4127;47.908;10.850;2022-12-29T07:41:26;7.10;88.40
8172;DHT22;4127;47.908;10.850;2022-12-29T07:49:29;7.30;88.30
8172;DHT22;4127;47.908;10.850;2022-12-29T07:51:56;7.30;88.10
8172;DHT22;4127;47.908;10.850;2022-12-29T07:54:23;7.40;86.90
8172;DHT22;4127;47.908;10.850;2022-12-29T07:56:50;7.50;87.50
8172;DHT22;4127;47.908;10.850;2022-12-29T07:59:17;7.60;87.50
8172;DHT22;4127;47.908;10.850;2022-12-29T08:01:44;7.60;87.90
8172;DHT22;4127;47.908;10.850;2022-12-29T08:04:11;7.70;86.60
8172;DHT22;4127;47.908;10.850;2022-12-29T08:06:38;7.80;87.30
8172;DHT22;4127;47.908;10.850;2022-12-29T08:09:04;7.80;87.70
8172;DHT22;4127;47.908;10.850;2022-12-29T08:11:42;7.60;87.80
8172;DHT22;4127;47.908;10.850;2022-12-29T08:14:10;7.80;88.00
8172;DHT22;4127;47.908;10.850;2022-12-29T08:16:37;7.90;86.00
8172;DHT22;4127;47.908;10.850;2022-12-29T08:19:03;8.00;86.30
8172;DHT22;4127;47.908;10.850;2022-12-29T08:21:31;7.90;86.50
8172;DHT22;4127;47.908;10.850;2022-12-29T08:23:58;8.00;87.00
8172;DHT22;4127;47.908;10.850;2022-12-29T08:26:25;8.00;86.90
8172;DHT22;4127;47.908;10.850;2022-12-29T08:28:53;8.20;87.10
8172;DHT22;4127;47.908;10.850;2022-12-29T08:31:20;8.20;86.70
8172;DHT22;4127;47.908;10.850;2022-12-29T08:33:46;8.20;86.40
8172;DHT22;4127;47.908;10.850;2022-12-29T08:36:13;8.20;86.30
8172;DHT22;4127;47.908;10.850;2022-12-29T08:38:40;8.10;86.00
8172;DHT22;4127;47.908;10.850;2022-12-29T08:41:07;8.10;86.90
8172;DHT22;4127;47.908;10.850;2022-12-29T08:43:34;8.20;86.80
8172;DHT22;4127;47.908;10.850;2022-12-29T08:46:01;8.30;86.40
8172;DHT22;4127;47.908;10.850;2022-12-29T08:48:28;8.40;85.70
8172;DHT22;4127;47.908;10.850;2022-12-29T08:50:55;8.50;86.50
8172;DHT22;4127;47.908;10.850;2022-12-29T08:53:22;8.50;85.90
8172;DHT22;4127;47.908;10.850;2022-12-29T08:55:58;8.60;84.90
8172;DHT22;4127;47.908;10.850;2022-12-29T08:58:31;8.60;84.60
8172;DHT22;4127;47.908;10.850;2022-12-29T09:00:58;8.80;84.00
8172;DHT22;4127;47.908;10.850;2022-12-29T09:03:26;8.80;83.50
8172;DHT22;4127;47.908;10.850;2022-12-29T09:06:14;8.80;83.10
8172;DHT22;4127;47.908;10.850;2022-12-29T09:08:41;8.90;83.20
8172;DHT22;4127;47.908;10.850;2022-12-29T09:11:12;8.90;84.40
8172;DHT22;4127;47.908;10.850;2022-12-29T09:13:39;8.90;86.50
8172;DHT22;4127;47.908;10.850;2022-12-29T09:16:06;8.90;87.20
8172;DHT22;4127;47.908;10.850;2022-12-29T09:18:33;8.80;86.90
8172;DHT22;4127;47.908;10.850;2022-12-29T09:21:04;8.80;86.80
8172;DHT22;4127;47.908;10.850;2022-12-29T09:23:31;8.80;86.50
8172;DHT22;4127;47.908;10.850;2022-12-29T09:25:58;8.90;85.20
8172;DHT22;4127;47.908;10.850;2022-12-29T09:28:25;8.80;85.50
8172;DHT22;4127;47.908;10.850;2022-12-29T09:30:52;8.70;85.50
8172;DHT22;4127;47.908;10.850;2022-12-29T09:33:19;8.70;85.40
8172;DHT22;4127;47.908;10.850;2022-12-29T09:35:55;8.80;85.20
8172;DHT22;4127;47.908;10.850;2022-12-29T09:38:23;8.70;85.90
8172;DHT22;4127;47.908;10.850;2022-12-29T09:40:56;8.70;86.30
8172;DHT22;4127;47.908;10.850;2022-12-29T09:51:46;8.80;85.80
8172;DHT22;4127;47.908;10.850;2022-12-29T09:54:23;8.70;86.70
8172;DHT22;4127;47.908;10.850;2022-12-29T09:56:52;8.70;87.80
8172;DHT22;4127;47.908;10.850;2022-12-29T09:59:22;8.70;86.70
8172;DHT22;4127;47.908;10.850;2022-12-29T10:02:16;8.80;87.00
8172;DHT22;4127;47.908;10.850;2022-12-29T10:04:47;8.80;87.20
8172;DHT22;4127;47.908;10.850;2022-12-29T10:07:52;8.80;87.00
8172;DHT22;4127;47.908;10.850;2022-12-29T10:10:30;8.80;86.90
8172;DHT22;4127;47.908;10.850;2022-12-29T10:24:16;9.00;85.90
8172;DHT22;4127;47.908;10.850;2022-12-29T10:26:43;9.10;84.30
8172;DHT22;4127;47.908;10.850;2022-12-29T10:29:19;9.20;85.60
8172;DHT22;4127;47.908;10.850;2022-12-29T10:31:58;9.30;86.00
8172;DHT22;4127;47.908;10.850;2022-12-29T10:34:29;9.30;85.00
8172;DHT22;4127;47.908;10.850;2022-12-29T10:37:09;9.40;83.80
8172;DHT22;4127;47.908;10.850;2022-12-29T10:39:45;9.60;82.50
8172;DHT22;4127;47.908;10.850;2022-12-29T10:42:35;9.70;79.20
8172;DHT22;4127;47.908;10.850;2022-12-29T10:45:04;10.00;78.40
8172;DHT22;4127;47.908;10.850;2022-12-29T10:47:37;10.00;79.10
8172;DHT22;4127;47.908;10.850;2022-12-29T10:50:05;10.10;78.10
8172;DHT22;4127;47.908;10.850;2022-12-29T10:52:33;10.20;75.60
8172;DHT22;4127;47.908;10.850;2022-12-29T10:55:13;10.30;75.60
8172;DHT22;4127;47.908;10.850;2022-12-29T10:57:44;10.30;75.40
8172;DHT22;4127;47.908;10.850;2022-12-29T11:00:20;10.30;76.40
8172;DHT22;4127;47.908;10.850;2022-12-29T11:08:19;10.30;76.20
8172;DHT22;4127;47.908;10.850;2022-12-29T11:11:01;10.20;75.80
8172;DHT22;4127;47.908;10.850;2022-12-29T11:13:30;10.20;76.60
8172;DHT22;4127;47.908;10.850;2022-12-29T11:16:04;10.20;77.20
8172;DHT22;4127;47.908;10.850;2022-12-29T11:18:37;10.20;76.50
8172;DHT22;4127;47.908;10.850;2022-12-29T11:21:06;10.20;77.00
8172;DHT22;4127;47.908;10.850;2022-12-29T11:26:45;10.30;76.80
8172;DHT22;4127;47.908;10.850;2022-12-29T11:29:20;10.30;76.70
8172;DHT22;4127;47.908;10.850;2022-12-29T11:31:55;10.40;76.50
8172;DHT22;4127;47.908;10.850;2022-12-29T11:34:33;10.50;76.80
8172;DHT22;4127;47.908;10.850;2022-12-29T11:39:32;10.60;78.10
8172;DHT22;4127;47.908;10.850;2022-12-29T11:42:01;10.90;76.90
8172;DHT22;4127;47.908;10.850;2022-12-29T11:44:34;10.90;78.40
8172;DHT22;4127;47.908;10.850;2022-12-29T11:47:02;10.90;78.30
8172;DHT22;4127;47.908;10.850;2022-12-29T11:49:30;10.90;79.60
8172;DHT22;4127;47.908;10.850;2022-12-29T11:51:57;11.00;78.80
8172;DHT22;4127;47.908;10.850;2022-12-29T11:54:33;11.10;78.70
8172;DHT22;4127;47.908;10.850;2022-12-29T11:57:13;11.30;78.30
8172;DHT22;4127;47.908;10.850;2022-12-29T11:59:43;11.40;77.80
8172;DHT22;4127;47.908;10.850;2022-12-29T12:02:25;11.40;77.70
8172;DHT22;4127;47.908;10.850;2022-12-29T12:05:08;11.60;78.20
8172;DHT22;4127;47.908;10.850;2022-12-29T12:07:40;11.70;77.50
8172;DHT22;4127;47.908;10.850;2022-12-29T12:10:15;11.80;78.00
8172;DHT22;4127;47.908;10.850;2022-12-29T12:15:51;11.90;78.10
8172;DHT22;4127;47.908;10.850;2022-12-29T12:18:32;11.90;78.80
8172;DHT22;4127;47.908;10.850;2022-12-29T12:23:52;11.90;80.20
8172;DHT22;4127;47.908;10.850;2022-12-29T12:26:45;11.80;79.70
8172;DHT22;4127;47.908;10.850;2022-12-29T12:29:19;11.80;80.80
8172;DHT22;4127;47.908;10.850;2022-12-29T12:34:30;11.90;82.00
8172;DHT22;4127;47.908;10.850;2022-12-29T12:43:13;11.90;83.80
8172;DHT22;4127;47.908;10.850;2022-12-29T12:48:30;12.00;83.50
8172;DHT22;4127;47.908;10.850;2022-12-29T12:51:22;12.00;84.10
8172;DHT22;4127;47.908;10.850;2022-12-29T12:54:34;11.90;85.00
8172;DHT22;4127;47.908;10.850;2022-12-29T13:03:35;12.00;85.20
8172;DHT22;4127;47.908;10.850;2022-12-29T13:16:41;12.00;85.00
8172;DHT22;4127;47.908;10.850;2022-12-29T13:19:56;12.00;84.50
8172;DHT22;4127;47.908;10.850;2022-12-29T13:22:50;12.00;84.50
8172;DHT22;4127;47.908;10.850;2022-12-29T13:25:25;12.00;84.80
8172;DHT22;4127;47.908;10.850;2022-12-29T13:30:44;11.90;85.20
8172;DHT22;4127;47.908;10.850;2022-12-29T13:36:25;11.90;84.70
8172;DHT22;4127;47.908;10.850;2022-12-29T13:39:02;11.90;85.70
8172;DHT22;4127;47.908;10.850;2022-12-29T13:41:39;11.90;84.20
8172;DHT22;4127;47.908;10.850;2022-12-29T13:46:41;11.90;84.80
8172;DHT22;4127;47.908;10.850;2022-12-29T13:49:16;11.80;86.20
8172;DHT22;4127;47.908;10.850;2022-12-29T13:51:53;11.80;85.80
8172;DHT22;4127;47.908;10.850;2022-12-29T14:00:02;11.70;87.50
8172;DHT22;4127;47.908;10.850;2022-12-29T14:08:15;11.70;86.70
8172;DHT22;4127;47.908;10.850;2022-12-29T14:10:50;11.70;86.90
8172;DHT22;4127;47.908;10.850;2022-12-29T14:13:22;11.60;86.00
8172;DHT22;4127;47.908;10.850;2022-12-29T14:15:57;11.60;87.00
8172;DHT22;4127;47.908;10.850;2022-12-29T14:18:26;11.50;86.20
8172;DHT22;4127;47.908;10.850;2022-12-29T14:20:59;11.40;86.60
8172;DHT22;4127;47.908;10.850;2022-12-29T14:23:38;11.40;86.90
8172;DHT22;4127;47.908;10.850;2022-12-29T14:28:34;11.40;87.10
8172;DHT22;4127;47.908;10.850;2022-12-29T14:36:39;11.20;89.10
8172;DHT22;4127;47.908;10.850;2022-12-29T14:39:41;11.10;89.30
8172;DHT22;4127;47.908;10.850;2022-12-29T14:45:37;11.00;90.30
8172;DHT22;4127;47.908;10.850;2022-12-29T14:47:41;11.00;90.40
8172;DHT22;4127;47.908;10.850;2022-12-29T14:50:22;10.90;90.60
8172;DHT22;4127;47.908;10.850;2022-12-29T14:52:59;10.80;90.90
8172;DHT22;4127;47.908;10.850;2022-12-29T14:58:01;10.80;91.00
8172;DHT22;4127;47.908;10.850;2022-12-29T15:00:34;10.80;91.30
8172;DHT22;4127;47.908;10.850;2022-12-29T15:03:14;10.80;91.40
8172;DHT22;4127;47.908;10.850;2022-12-29T15:05:52;10.80;91.70
8172;DHT22;4127;47.908;10.850;2022-12-29T15:08:30;10.60;91.70
8172;DHT22;4127;47.908;10.850;2022-12-29T15:11:14;10.60;92.10
8172;DHT22;4127;47.908;10.850;2022-12-29T15:13:43;10.60;91.90
8172;DHT22;4127;47.908;10.850;2022-12-29T15:18:55;10.50;92.00
8172;DHT22;4127;47.908;10.850;2022-12-29T15:21:29;10.60;93.00
8172;DHT22;4127;47.908;10.850;2022-12-29T15:23:56;10.40;92.90
8172;DHT22;4127;47.908;10.850;2022-12-29T15:26:36;10.40;92.70
8172;DHT22;4127;47.908;10.850;2022-12-29T15:29:03;10.30;93.10
8172;DHT22;4127;47.908;10.850;2022-12-29T15:31:30;10.30;93.30
8172;DHT22;4127;47.908;10.850;2022-12-29T15:34:11;10.30;93.40
8172;DHT22;4127;47.908;10.850;2022-12-29T15:36:40;10.30;93.30
8172;DHT22;4127;47.908;10.850;2022-12-29T15:39:26;10.30;93.50
8172;DHT22;4127;47.908;10.850;2022-12-29T15:41:56;10.20;93.80
8172;DHT22;4127;47.908;10.850;2022-12-29T15:44:39;10.10;94.20
8172;DHT22;4127;47.908;10.850;2022-12-29T15:47:16;10.10;94.30
8172;DHT22;4127;47.908;10.850;2022-12-29T15:49:48;10.20;94.30
8172;DHT22;4127;47.908;10.850;2022-12-29T15:52:20;10.10;94.10
8172;DHT22;4127;47.908;10.850;2022-12-29T15:54:52;10.10;94.40
8172;DHT22;4127;47.908;10.850;2022-12-29T15:57:25;10.10;94.50
8172;DHT22;4127;47.908;10.850;2022-12-29T15:59:53;10.10;95.00
8172;DHT22;4127;47.908;10.850;2022-12-29T16:02:22;10.00;94.70
8172;DHT22;4127;47.908;10.850;2022-12-29T16:04:50;10.10;94.70
8172;DHT22;4127;47.908;10.850;2022-12-29T16:07:37;10.10;94.70
8172;DHT22;4127;47.908;10.850;2022-12-29T16:12:53;9.90;94.60
8172;DHT22;4127;47.908;10.850;2022-12-29T16:15:20;9.90;94.60
8172;DHT22;4127;47.908;10.850;2022-12-29T16:17:50;9.90;94.50
8172;DHT22;4127;47.908;10.850;2022-12-29T16:20:24;9.90;94.60
8172;DHT22;4127;47.908;10.850;2022-12-29T16:22:55;9.90;94.80
8172;DHT22;4127;47.908;10.850;2022-12-29T16:25:33;9.90;94.50
8172;DHT22;4127;47.908;10.850;2022-12-29T16:28:03;9.90;93.70
8172;DHT22;4127;47.908;10.850;2022-12-29T16:30:41;9.80;94.40
8172;DHT22;4127;47.908;10.850;2022-12-29T16:33:29;9.80;94.30
8172;DHT22;4127;47.908;10.850;2022-12-29T16:35:58;9.70;94.50
8172;DHT22;4127;47.908;10.850;2022-12-29T16:38:31;9.60;94.50
8172;DHT22;4127;47.908;10.850;2022-12-29T16:41:01;9.50;94.70
8172;DHT22;4127;47.908;10.850;2022-12-29T16:43:34;9.50;94.70
8172;DHT22;4127;47.908;10.850;2022-12-29T16:48:47;9.30;94.60
8172;DHT22;4127;47.908;10.850;2022-12-29T16:51:17;9.20;94.60
8172;DHT22;4127;47.908;10.850;2022-12-29T16:53:50;9.20;94.60
8172;DHT22;4127;47.908;10.850;2022-12-29T16:56:24;9.20;94.60
8172;DHT22;4127;47.908;10.850;2022-12-29T16:59:39;9.20;94.60
8172;DHT22;4127;47.908;10.850;2022-12-29T17:01:40;9.20;94.60
8172;DHT22;4127;47.908;10.850;2022-12-29T17:04:12;9.30;94.50
8172;DHT22;4127;47.908;10.850;2022-12-29T17:06:40;9.30;94.80
8172;DHT22;4127;47.908;10.850;2022-12-29T17:09:24;9.30;94.70
8172;DHT22;4127;47.908;10.850;2022-12-29T17:11:56;9.30;95.20
8172;DHT22;4127;47.908;10.850;2022-12-29T17:14:40;9.20;94.80
8172;DHT22;4127;47.908;10.850;2022-12-29T17:19:54;8.80;95.20
8172;DHT22;4127;47.908;10.850;2022-12-29T17:22:24;8.70;95.20
8172;DHT22;4127;47.908;10.850;2022-12-29T17:24:53;8.60;95.20
8172;DHT22;4127;47.908;10.850;2022-12-29T17:27:27;8.60;95.70
8172;DHT22;4127;47.908;10.850;2022-12-29T17:30:02;8.50;95.90
8172;DHT22;4127;47.908;10.850;2022-12-29T17:32:29;8.60;95.80
8172;DHT22;4127;47.908;10.850;2022-12-29T17:34:56;8.50;96.10
8172;DHT22;4127;47.908;10.850;2022-12-29T17:39:50;8.30;97.30
8172;DHT22;4127;47.908;10.850;2022-12-29T17:42:18;8.10;98.40
8172;DHT22;4127;47.908;10.850;2022-12-29T17:44:45;7.80;99.70
8172;DHT22;4127;47.908;10.850;2022-12-29T17:47:13;7.70;99.90
8172;DHT22;4127;47.908;10.850;2022-12-29T17:49:41;7.70;99.90
8172;DHT22;4127;47.908;10.850;2022-12-29T17:52:13;7.60;99.90
8172;DHT22;4127;47.908;10.850;2022-12-29T17:54:51;7.50;99.90
8172;DHT22;4127;47.908;10.850;2022-12-29T17:57:20;7.40;99.90
8172;DHT22;4127;47.908;10.850;2022-12-29T17:59:47;7.30;99.90
8172;DHT22;4127;47.908;10.850;2022-12-29T18:02:24;7.30;99.90
8172;DHT22;4127;47.908;10.850;2022-12-29T18:04:52;7.20;99.90
8172;DHT22;4127;47.908;10.850;2022-12-29T18:07:19;7.40;99.90
8172;DHT22;4127;47.908;10.850;2022-12-29T18:09:45;7.50;98.90
8172;DHT22;4127;47.908;10.850;2022-12-29T18:12:40;7.90;98.10
8172;DHT22;4127;47.908;10.850;2022-12-29T18:15:22;7.90;97.30
8172;DHT22;4127;47.908;10.850;2022-12-29T18:17:59;8.00;96.90
8172;DHT22;4127;47.908;10.850;2022-12-29T18:20:30;8.10;97.20
8172;DHT22;4127;47.908;10.850;2022-12-29T18:22:57;8.10;97.40
8172;DHT22;4127;47.908;10.850;2022-12-29T18:25:53;8.10;97.30
8172;DHT22;4127;47.908;10.850;2022-12-29T18:28:21;8.10;96.90
8172;DHT22;4127;47.908;10.850;2022-12-29T18:30:49;8.20;96.80
8172;DHT22;4127;47.908;10.850;2022-12-29T18:33:17;8.40;97.50
8172;DHT22;4127;47.908;10.850;2022-12-29T18:36:03;8.50;97.30
8172;DHT22;4127;47.908;10.850;2022-12-29T18:38:31;8.60;97.60
8172;DHT22;4127;47.908;10.850;2022-12-29T18:40:58;8.80;97.70
8172;DHT22;4127;47.908;10.850;2022-12-29T18:43:25;8.90;97.90
8172;DHT22;4127;47.908;10.850;2022-12-29T18:45:51;8.90;98.50
8172;DHT22;4127;47.908;10.850;2022-12-29T18:48:19;8.90;98.80
8172;DHT22;4127;47.908;10.850;2022-12-29T18:50:47;8.90;99.50
8172;DHT22;4127;47.908;10.850;2022-12-29T18:53:22;8.80;99.80
8172;DHT22;4127;47.908;10.850;2022-12-29T18:55:51;8.80;99.90
8172;DHT22;4127;47.908;10.850;2022-12-29T18:58:18;8.90;99.90
8172;DHT22;4127;47.908;10.850;2022-12-29T19:00:45;8.80;99.90
8172;DHT22;4127;47.908;10.850;2022-12-29T19:03:14;8.90;99.90
8172;DHT22;4127;47.908;10.850;2022-12-29T19:05:43;9.00;99.90